Wetterdaten für den Flughafen Lübeck Blankensee


ADDS - METARS form results Aviation Digital Data Service (ADDS) Output produced by METARs form (1412 UTC 16 October 2018)
found at http://www.aviationweather.gov/metar/data/
 
EDHL 161350Z 21007KT CAVOK 22/13 Q1018
TAF EDHL 161100Z 1612/1621 22004KT CAVOK

Nord: Hamburg, Lübeck
Ost: Schwerin, Rostock
Süd: Hannover
West: Bremen, Nordhloz

 

Copyright © 2016 Flugschule Hohensee